createdAt,value
2018-12-21T00:02:18.787Z,1.47
2018-12-21T00:04:46.315Z,1.33
2018-12-21T00:07:13.915Z,1.83
2018-12-21T00:09:41.463Z,1.53
2018-12-21T00:12:08.959Z,1.53
2018-12-21T00:14:36.744Z,1.20
2018-12-21T00:17:04.243Z,1.13
2018-12-21T00:19:31.739Z,1.17
2018-12-21T00:21:59.263Z,1.50
2018-12-21T00:24:26.763Z,1.33
2018-12-21T00:26:54.422Z,1.93
2018-12-21T00:29:21.948Z,1.43
2018-12-21T00:31:55.483Z,1.33
2018-12-21T00:34:28.541Z,2.07
2018-12-21T00:37:01.967Z,1.00
2018-12-21T00:39:35.016Z,1.00
2018-12-21T00:42:02.105Z,1.57
2018-12-21T00:44:31.630Z,1.10
2018-12-21T00:46:59.428Z,0.93
2018-12-21T00:49:27.987Z,1.80
2018-12-21T00:51:55.479Z,1.90
2018-12-21T00:54:23.043Z,1.50
2018-12-21T00:56:50.567Z,2.10
2018-12-21T00:59:18.159Z,1.23
2018-12-21T01:01:45.691Z,1.20
2018-12-21T01:04:13.197Z,1.50
2018-12-21T01:06:40.983Z,1.20
2018-12-21T01:09:08.794Z,1.20
2018-12-21T01:11:36.424Z,1.70
2018-12-21T01:14:04.147Z,1.30
2018-12-21T01:16:32.051Z,1.20
2018-12-21T01:18:59.707Z,1.43
2018-12-21T01:21:29.210Z,0.80
2018-12-21T01:23:56.807Z,1.50
2018-12-21T01:26:24.553Z,1.13
2018-12-21T01:28:52.051Z,1.53
2018-12-21T01:31:19.596Z,0.80
2018-12-21T01:33:47.093Z,1.10
2018-12-21T01:36:14.619Z,1.47
2018-12-21T01:38:42.276Z,0.87
2018-12-21T01:41:09.892Z,1.00
2018-12-21T01:43:37.432Z,1.13
2018-12-21T01:46:04.931Z,1.10
2018-12-21T01:48:32.481Z,0.90
2018-12-21T01:50:59.981Z,1.63
2018-12-21T01:53:27.526Z,1.20
2018-12-21T01:55:55.023Z,1.20
2018-12-21T01:58:22.523Z,0.70
2018-12-21T02:00:50.049Z,1.17
2018-12-21T02:03:17.655Z,1.40
2018-12-21T02:05:45.312Z,0.77
2018-12-21T02:08:12.829Z,1.33
2018-12-21T02:10:40.396Z,1.23
2018-12-21T02:13:07.895Z,1.20
2018-12-21T02:15:35.396Z,1.10
2018-12-21T02:18:02.927Z,0.83
2018-12-21T02:20:31.125Z,0.80
2018-12-21T02:22:58.651Z,1.70
2018-12-21T02:25:26.147Z,0.90
2018-12-21T02:27:53.815Z,1.27
2018-12-21T02:30:21.321Z,1.20
2018-12-21T02:32:48.838Z,1.17
2018-12-21T02:35:16.366Z,1.00
2018-12-21T02:37:43.864Z,1.17
2018-12-21T02:40:11.632Z,1.37
2018-12-21T02:42:39.132Z,1.60
2018-12-21T02:45:07.539Z,2.17
2018-12-21T02:47:35.067Z,0.80
2018-12-21T02:50:02.560Z,0.80
2018-12-21T02:52:30.311Z,1.33
2018-12-21T02:54:57.816Z,1.60
2018-12-21T02:57:25.315Z,1.40
2018-12-21T02:59:52.855Z,0.77
2018-12-21T03:02:20.351Z,1.17
2018-12-21T03:04:48.040Z,1.27
2018-12-21T03:07:15.535Z,1.53
2018-12-21T03:09:43.040Z,1.20
2018-12-21T03:12:10.563Z,1.50
2018-12-21T03:14:38.060Z,1.53
2018-12-21T03:17:05.758Z,1.23
2018-12-21T03:19:33.255Z,1.30
2018-12-21T03:22:00.754Z,1.10
2018-12-21T03:24:28.282Z,1.50
2018-12-21T03:26:55.789Z,2.30
2018-12-21T03:29:23.500Z,1.70
2018-12-21T03:31:51.017Z,3.03
2018-12-21T03:34:18.523Z,2.20
2018-12-21T03:36:46.060Z,1.40
2018-12-21T03:39:13.595Z,1.40
2018-12-21T03:41:41.143Z,1.47
2018-12-21T03:44:08.659Z,1.40
2018-12-21T03:46:36.165Z,1.27
2018-12-21T03:49:03.823Z,2.03
2018-12-21T03:51:31.323Z,1.97
2018-12-21T03:53:58.874Z,1.73
2018-12-21T03:56:26.378Z,1.93
2018-12-21T03:58:53.871Z,1.80
2018-12-21T04:01:21.427Z,1.80
2018-12-21T04:03:48.982Z,1.70
2018-12-21T04:06:16.507Z,1.90
2018-12-21T04:08:43.996Z,2.13
2018-12-21T04:11:11.512Z,1.50
2018-12-21T04:13:39.056Z,1.43
2018-12-21T04:16:06.560Z,1.70
2018-12-21T04:18:34.100Z,1.40
2018-12-21T04:21:01.600Z,1.60
2018-12-21T04:23:29.100Z,2.40
2018-12-21T04:25:56.626Z,1.13
2018-12-21T04:28:24.127Z,2.13
2018-12-21T04:30:51.655Z,1.63
2018-12-21T04:33:19.163Z,1.10
2018-12-21T04:35:46.680Z,1.73
2018-12-21T04:38:14.212Z,2.00
2018-12-21T04:40:41.703Z,2.07
2018-12-21T04:43:09.400Z,1.87
2018-12-21T04:45:36.896Z,1.60
2018-12-21T04:48:04.391Z,1.73
2018-12-21T04:50:31.934Z,2.07
2018-12-21T04:52:59.428Z,1.00
2018-12-21T04:55:27.087Z,2.00
2018-12-21T04:57:54.579Z,1.60
2018-12-21T05:00:22.188Z,1.47
2018-12-21T05:02:49.827Z,1.17
2018-12-21T05:05:17.320Z,1.10
2018-12-21T05:07:44.899Z,1.47
2018-12-21T05:10:12.424Z,1.40
2018-12-21T05:12:39.927Z,1.20
2018-12-21T05:15:07.455Z,1.30
2018-12-21T05:17:34.971Z,1.53
2018-12-21T05:20:02.624Z,1.50
2018-12-21T05:22:30.123Z,2.10
2018-12-21T05:24:57.727Z,2.03
2018-12-21T05:27:25.389Z,1.90
2018-12-21T05:29:52.887Z,1.00
2018-12-21T05:32:20.420Z,1.30
2018-12-21T05:34:49.898Z,1.93
2018-12-21T05:37:17.447Z,1.47
2018-12-21T05:39:44.971Z,1.53
2018-12-21T05:42:12.469Z,1.80
2018-12-21T05:44:39.999Z,1.90
2018-12-21T05:47:07.497Z,1.57
2018-12-21T05:49:35.002Z,1.60
2018-12-21T05:52:03.153Z,1.37
2018-12-21T05:54:30.667Z,1.17
2018-12-21T05:56:58.339Z,1.23
2018-12-21T05:59:25.839Z,2.03
2018-12-21T06:01:53.444Z,0.73
2018-12-21T06:04:20.972Z,0.90
2018-12-21T06:06:48.471Z,0.70
2018-12-21T06:09:16.007Z,0.60
2018-12-21T06:11:43.527Z,0.80
2018-12-21T06:14:11.022Z,0.60
2018-12-21T06:16:38.549Z,0.67
2018-12-21T06:19:06.268Z,0.80
2018-12-21T06:21:33.867Z,0.87
2018-12-21T06:24:01.363Z,0.70
2018-12-21T06:26:28.862Z,1.00
2018-12-21T06:28:56.397Z,0.40
2018-12-21T06:31:23.895Z,0.60
2018-12-21T06:33:51.531Z,0.87
2018-12-21T06:36:19.032Z,0.57
2018-12-21T06:38:46.528Z,0.40
2018-12-21T06:41:14.068Z,0.57
2018-12-21T06:43:41.565Z,0.50
2018-12-21T06:46:14.098Z,0.50
2018-12-21T06:48:38.761Z,0.60
2018-12-21T06:51:06.260Z,1.00
2018-12-21T06:53:33.811Z,0.60
2018-12-21T06:56:01.308Z,0.50
2018-12-21T06:58:28.856Z,0.40
2018-12-21T07:00:56.357Z,0.40
2018-12-21T07:03:23.851Z,0.50
2018-12-21T07:05:51.420Z,0.40
2018-12-21T07:08:18.990Z,0.40
2018-12-21T07:10:46.511Z,0.37
2018-12-21T07:13:14.015Z,0.40
2018-12-21T07:15:42.495Z,0.40
2018-12-21T07:18:10.006Z,0.40
2018-12-21T07:20:37.515Z,0.40
2018-12-21T07:23:05.104Z,0.40
2018-12-21T07:25:32.988Z,0.40
2018-12-21T07:28:00.608Z,0.40
2018-12-21T07:30:28.115Z,0.40
2018-12-21T07:32:55.640Z,0.50
2018-12-21T07:35:23.183Z,0.50
2018-12-21T07:37:50.713Z,0.30
2018-12-21T07:40:18.519Z,0.50
2018-12-21T07:42:46.027Z,0.40
2018-12-21T07:45:13.649Z,0.60
2018-12-21T07:47:41.175Z,0.30
2018-12-21T07:50:08.868Z,0.50
2018-12-21T07:52:36.508Z,0.40
2018-12-21T07:55:05.503Z,0.40
2018-12-21T07:57:33.051Z,0.40
2018-12-21T08:00:00.600Z,0.40
2018-12-21T08:02:28.095Z,0.40
2018-12-21T08:04:55.783Z,0.40
2018-12-21T08:07:23.279Z,0.40
2018-12-21T08:09:50.780Z,0.30
2018-12-21T08:12:18.408Z,0.40
2018-12-21T08:14:45.939Z,0.40
2018-12-21T08:17:13.639Z,0.30
2018-12-21T08:19:41.139Z,0.50
2018-12-21T08:22:08.631Z,0.40
2018-12-21T08:24:36.175Z,0.30
2018-12-21T08:27:03.671Z,0.40
2018-12-21T08:29:31.207Z,0.47
2018-12-21T08:31:58.707Z,0.40
2018-12-21T08:34:26.208Z,0.63
2018-12-21T08:36:53.748Z,0.40
2018-12-21T08:39:21.248Z,0.40
2018-12-21T08:41:48.783Z,0.30
2018-12-21T08:44:16.281Z,0.40
2018-12-21T08:46:43.779Z,0.40
2018-12-21T08:49:11.327Z,1.23
2018-12-21T08:51:38.819Z,4.87
2018-12-21T08:54:06.351Z,0.60
2018-12-21T08:56:33.853Z,0.30
2018-12-21T08:59:01.347Z,0.50
2018-12-21T09:01:29.588Z,0.40
2018-12-21T09:03:57.093Z,0.53
2018-12-21T09:06:24.655Z,0.50
2018-12-21T09:08:52.154Z,0.40
2018-12-21T09:11:19.655Z,0.30
2018-12-21T09:13:47.179Z,0.30
2018-12-21T09:16:14.679Z,0.50
2018-12-21T09:18:42.427Z,1.10
2018-12-21T09:21:09.976Z,0.60
2018-12-21T09:23:37.476Z,0.30
2018-12-21T09:26:04.997Z,0.30
2018-12-21T09:28:32.491Z,0.33
2018-12-21T09:31:00.351Z,0.30
2018-12-21T09:33:27.848Z,0.40
2018-12-21T09:35:55.400Z,0.30
2018-12-21T09:38:22.939Z,0.30
2018-12-21T09:40:50.439Z,0.30
2018-12-21T09:43:18.127Z,0.30
2018-12-21T09:45:45.628Z,0.47
2018-12-21T09:48:13.119Z,0.30
2018-12-21T09:50:40.643Z,0.47
2018-12-21T09:53:08.139Z,0.30
2018-12-21T09:55:35.748Z,0.30
2018-12-21T09:58:03.312Z,0.30
2018-12-21T10:00:31.468Z,0.50
2018-12-21T10:02:59.106Z,0.43
2018-12-21T10:05:26.766Z,0.30
2018-12-21T10:07:54.318Z,0.30
2018-12-21T10:10:21.821Z,0.30
2018-12-21T10:12:53.358Z,0.40
2018-12-21T10:15:18.892Z,0.30
2018-12-21T10:17:46.404Z,0.20
2018-12-21T10:20:13.932Z,0.70
2018-12-21T10:22:41.432Z,0.30
2018-12-21T10:25:08.932Z,0.40
2018-12-21T10:27:36.471Z,0.27
2018-12-21T10:30:06.766Z,0.30
2018-12-21T10:32:34.424Z,0.30
2018-12-21T10:35:01.923Z,0.30
2018-12-21T10:37:29.511Z,0.30
2018-12-21T10:39:57.006Z,0.30
2018-12-21T10:42:26.818Z,0.30
2018-12-21T10:44:54.311Z,0.30
2018-12-21T10:47:21.819Z,0.20
2018-12-21T10:49:49.347Z,0.40
2018-12-21T10:52:16.844Z,0.37
2018-12-21T10:54:44.348Z,0.30
2018-12-21T10:57:11.871Z,0.30
2018-12-21T10:59:43.395Z,0.30
2018-12-21T11:02:09.043Z,0.30
2018-12-21T11:04:36.543Z,0.30
2018-12-21T11:07:04.151Z,0.40
2018-12-21T11:09:31.703Z,0.23
2018-12-21T11:11:59.200Z,0.30
2018-12-21T11:14:26.741Z,0.30
2018-12-21T11:16:54.239Z,0.30
2018-12-21T11:19:21.778Z,0.30
2018-12-21T11:21:49.304Z,0.30
2018-12-21T11:24:16.799Z,0.30
2018-12-21T11:26:44.332Z,0.50
2018-12-21T11:29:11.843Z,0.30
2018-12-21T11:31:39.339Z,0.27
2018-12-21T11:34:06.869Z,0.23
2018-12-21T11:36:34.383Z,0.20
2018-12-21T11:39:01.936Z,0.30
2018-12-21T11:41:29.573Z,0.30
2018-12-21T11:43:57.076Z,0.30
2018-12-21T11:46:24.619Z,0.30
2018-12-21T11:48:53.766Z,0.20
2018-12-21T11:51:21.504Z,0.40
2018-12-21T11:53:48.995Z,0.20
2018-12-21T11:56:16.491Z,0.40
2018-12-21T11:58:44.015Z,0.30
2018-12-21T12:01:11.511Z,0.30
2018-12-21T12:03:39.295Z,0.30
2018-12-21T12:06:06.787Z,0.30
2018-12-21T12:08:34.283Z,0.20
2018-12-21T12:11:01.825Z,0.30
2018-12-21T12:13:29.336Z,0.30
2018-12-21T12:15:56.985Z,0.30
2018-12-21T12:18:24.481Z,0.20
2018-12-21T12:20:52.495Z,0.30
2018-12-21T12:23:20.019Z,0.30
2018-12-21T12:25:47.511Z,0.27
2018-12-21T12:28:15.266Z,0.20
2018-12-21T12:30:42.768Z,0.30
2018-12-21T12:33:10.259Z,0.30
2018-12-21T12:35:37.799Z,0.20
2018-12-21T12:38:05.293Z,0.30
2018-12-21T12:40:32.856Z,0.30
2018-12-21T12:43:00.368Z,0.30
2018-12-21T12:45:27.864Z,0.30
2018-12-21T12:47:55.409Z,0.30
2018-12-21T12:50:23.004Z,0.30
2018-12-21T12:52:51.788Z,0.30
2018-12-21T12:55:19.284Z,0.30
2018-12-21T12:57:46.781Z,0.30
2018-12-21T13:00:14.307Z,0.30
2018-12-21T13:02:41.811Z,0.37
2018-12-21T13:05:09.539Z,0.30
2018-12-21T13:07:37.035Z,0.30
2018-12-21T13:10:07.564Z,0.30
2018-12-21T13:12:35.076Z,0.30
2018-12-21T13:15:02.687Z,0.30
2018-12-21T13:17:30.217Z,0.30
2018-12-21T13:19:57.742Z,0.23
2018-12-21T13:22:25.276Z,0.30
2018-12-21T13:24:52.775Z,0.30
2018-12-21T13:27:20.272Z,0.30
2018-12-21T13:29:48.387Z,0.30
2018-12-21T13:32:15.887Z,0.30
2018-12-21T13:34:43.588Z,0.20
2018-12-21T13:37:11.087Z,0.20
2018-12-21T13:39:38.584Z,0.30
2018-12-21T13:42:06.113Z,0.30
2018-12-21T13:44:33.615Z,0.33
2018-12-21T13:47:01.287Z,0.30
2018-12-21T13:49:28.789Z,0.30
2018-12-21T13:51:56.285Z,0.30
2018-12-21T13:54:24.317Z,0.30
2018-12-21T13:56:51.825Z,0.30
2018-12-21T13:59:19.359Z,0.23
2018-12-21T14:01:46.855Z,0.33
2018-12-21T14:04:14.368Z,0.30
2018-12-21T14:06:41.929Z,0.30
2018-12-21T14:09:09.439Z,0.30
2018-12-21T14:11:36.980Z,0.30
2018-12-21T14:14:04.604Z,0.20
2018-12-21T14:16:32.199Z,0.30
2018-12-21T14:18:59.727Z,0.30
2018-12-21T14:21:27.237Z,0.30
2018-12-21T14:23:55.015Z,0.40
2018-12-21T14:26:22.510Z,0.40
2018-12-21T14:28:50.019Z,0.43
2018-12-21T14:31:17.548Z,0.40
2018-12-21T14:33:45.194Z,0.30
2018-12-21T14:36:12.775Z,0.30
2018-12-21T14:38:40.311Z,0.30
2018-12-21T14:41:07.827Z,0.30
2018-12-21T14:43:35.351Z,0.40
2018-12-21T14:46:02.852Z,0.37
2018-12-21T14:48:30.548Z,0.30
2018-12-21T14:50:58.050Z,0.30
2018-12-21T14:53:25.559Z,0.50
2018-12-21T14:55:53.208Z,0.40
2018-12-21T14:58:20.707Z,0.37
2018-12-21T15:00:48.503Z,0.63
2018-12-21T15:03:16.020Z,0.40
2018-12-21T15:05:43.522Z,1.00
2018-12-21T15:08:11.175Z,0.80
2018-12-21T15:10:38.687Z,0.40
2018-12-21T15:13:06.220Z,0.47
2018-12-21T15:15:33.724Z,0.30
2018-12-21T15:18:01.225Z,0.33
2018-12-21T15:20:28.762Z,0.50
2018-12-21T15:22:56.278Z,0.40
2018-12-21T15:25:23.871Z,0.30
2018-12-21T15:27:51.368Z,0.30
2018-12-21T15:30:18.864Z,0.40
2018-12-21T15:32:46.388Z,0.30
2018-12-21T15:35:13.888Z,0.30
2018-12-21T15:37:41.442Z,0.30
2018-12-21T15:40:08.940Z,0.60
2018-12-21T15:42:36.435Z,0.30
2018-12-21T15:45:05.268Z,0.50
2018-12-21T15:47:32.787Z,0.30
2018-12-21T15:50:00.321Z,0.30
2018-12-21T15:52:28.079Z,0.30
2018-12-21T15:54:55.579Z,0.40
2018-12-21T15:57:23.161Z,0.30
2018-12-21T15:59:50.708Z,0.40
2018-12-21T16:02:18.243Z,0.30
2018-12-21T16:04:45.756Z,0.40
2018-12-21T16:07:13.271Z,0.30
2018-12-21T16:09:40.799Z,0.40
2018-12-21T16:12:08.299Z,0.40
2018-12-21T16:14:36.795Z,0.37
2018-12-21T16:17:04.396Z,2.50
2018-12-21T16:19:31.901Z,3.10
2018-12-21T16:21:59.428Z,0.50
2018-12-21T16:24:26.936Z,0.30
2018-12-21T16:26:54.635Z,0.40
2018-12-21T16:29:22.136Z,0.30
2018-12-21T16:31:49.635Z,0.40
2018-12-21T16:34:17.164Z,0.40
2018-12-21T16:36:44.666Z,0.40
2018-12-21T16:39:12.255Z,0.50
2018-12-21T16:41:39.763Z,0.60
2018-12-21T16:44:07.264Z,0.30
2018-12-21T16:46:34.808Z,0.40
2018-12-21T16:49:02.319Z,0.50
2018-12-21T16:51:29.900Z,0.40
2018-12-21T16:53:57.400Z,0.50
2018-12-21T16:56:24.919Z,0.40
2018-12-21T16:58:52.443Z,0.63
2018-12-21T17:01:20.075Z,0.40
2018-12-21T17:03:47.620Z,1.20
2018-12-21T17:06:15.406Z,0.53
2018-12-21T17:08:42.906Z,0.60
2018-12-21T17:11:10.919Z,0.70
2018-12-21T17:13:38.429Z,0.60
2018-12-21T17:16:05.967Z,0.80
2018-12-21T17:18:33.477Z,1.00
2018-12-21T17:21:01.132Z,0.57
2018-12-21T17:23:28.937Z,0.60
2018-12-21T17:25:56.437Z,0.40
2018-12-21T17:28:23.996Z,0.90
2018-12-21T17:30:51.523Z,0.40
2018-12-21T17:33:19.031Z,0.40
2018-12-21T17:35:46.571Z,0.80
2018-12-21T17:38:14.085Z,0.40
2018-12-21T17:40:42.023Z,0.50
2018-12-21T17:43:09.525Z,0.33
2018-12-21T17:45:37.028Z,0.50
2018-12-21T17:48:04.571Z,0.40
2018-12-21T17:50:32.093Z,0.40
2018-12-21T17:52:59.816Z,0.53
2018-12-21T17:55:27.315Z,0.40
2018-12-21T17:57:54.819Z,0.40
2018-12-21T18:00:22.347Z,0.40
2018-12-21T18:02:49.840Z,0.40
2018-12-21T18:05:17.363Z,0.33
2018-12-21T18:07:44.872Z,0.40
2018-12-21T18:10:12.548Z,0.40
2018-12-21T18:12:40.075Z,0.40
2018-12-21T18:15:08.887Z,0.40
2018-12-21T18:17:36.424Z,0.50
2018-12-21T18:20:07.228Z,0.40
2018-12-21T18:22:34.764Z,0.47
2018-12-21T18:25:02.969Z,0.40
2018-12-21T18:27:30.696Z,0.33
2018-12-21T18:29:58.234Z,0.40
2018-12-21T18:32:25.749Z,0.40
2018-12-21T18:34:53.445Z,0.50
2018-12-21T18:37:20.946Z,0.40
2018-12-21T18:39:48.443Z,0.70
2018-12-21T18:42:15.971Z,0.40
2018-12-21T18:44:43.504Z,0.40
2018-12-21T18:47:11.139Z,0.70
2018-12-21T18:49:38.642Z,0.80
2018-12-21T18:52:06.139Z,0.87
2018-12-21T18:54:33.671Z,0.60
2018-12-21T18:57:01.317Z,0.50
2018-12-21T18:59:28.884Z,0.60
2018-12-21T19:01:56.395Z,0.50
2018-12-21T19:04:23.894Z,0.50
2018-12-21T19:06:51.425Z,0.40
2018-12-21T19:09:18.927Z,0.40
2018-12-21T19:11:46.508Z,0.50
2018-12-21T19:14:14.009Z,1.03
2018-12-21T19:16:41.515Z,0.70
2018-12-21T19:19:09.069Z,0.50
2018-12-21T19:21:36.564Z,0.50
2018-12-21T19:24:04.115Z,0.40
2018-12-21T19:26:31.615Z,0.40
2018-12-21T19:28:59.111Z,0.50
2018-12-21T19:31:26.635Z,0.40
2018-12-21T19:33:54.135Z,0.40
2018-12-21T19:36:21.819Z,0.33
2018-12-21T19:38:49.314Z,0.40
2018-12-21T19:41:16.845Z,0.60
2018-12-21T19:43:44.375Z,0.40
2018-12-21T19:46:11.883Z,0.30
2018-12-21T19:48:39.516Z,0.40
2018-12-21T19:51:07.011Z,0.30
2018-12-21T19:53:34.640Z,0.63
2018-12-21T19:56:06.087Z,0.40
2018-12-21T19:58:33.587Z,0.80
2018-12-21T20:01:01.119Z,0.33
2018-12-21T20:03:28.615Z,0.60
2018-12-21T20:05:56.135Z,0.50
2018-12-21T20:08:23.687Z,0.40
2018-12-21T20:10:51.188Z,0.50
2018-12-21T20:13:18.715Z,0.87
2018-12-21T20:15:46.243Z,0.60
2018-12-21T20:18:14.383Z,0.50
2018-12-21T20:20:41.875Z,0.40
2018-12-21T20:23:09.411Z,0.53
2018-12-21T20:25:36.913Z,0.30
2018-12-21T20:28:04.411Z,0.40
2018-12-21T20:30:32.060Z,0.40
2018-12-21T20:32:59.589Z,0.40
2018-12-21T20:35:27.173Z,0.40
2018-12-21T20:37:54.692Z,0.40
2018-12-21T20:40:22.234Z,0.43
2018-12-21T20:42:49.832Z,0.40
2018-12-21T20:45:17.331Z,0.50
2018-12-21T20:47:45.071Z,0.40
2018-12-21T20:50:14.381Z,0.40
2018-12-21T20:52:41.924Z,0.30
2018-12-21T20:55:09.973Z,0.40
2018-12-21T20:57:40.300Z,0.50
2018-12-21T21:00:14.364Z,0.63
2018-12-21T21:02:41.859Z,0.30
2018-12-21T21:05:09.427Z,0.43
2018-12-21T21:07:36.952Z,0.70
2018-12-21T21:10:08.500Z,0.60
2018-12-21T21:12:36.035Z,0.50
2018-12-21T21:15:05.966Z,0.63
2018-12-21T21:17:33.514Z,0.50
2018-12-21T21:20:01.035Z,0.40
2018-12-21T21:22:28.651Z,0.40
2018-12-21T21:24:56.763Z,0.60
2018-12-21T21:27:30.316Z,0.50
2018-12-21T21:29:53.827Z,0.50
2018-12-21T21:32:21.363Z,0.40
2018-12-21T21:34:48.875Z,0.30
2018-12-21T21:37:16.386Z,0.60
2018-12-21T21:39:43.911Z,0.40
2018-12-21T21:42:12.021Z,0.40
2018-12-21T21:44:40.933Z,0.50
2018-12-21T21:47:08.443Z,0.60
2018-12-21T21:49:35.947Z,0.50
2018-12-21T21:52:03.489Z,0.50
2018-12-21T21:54:31.006Z,0.57
2018-12-21T21:56:58.632Z,0.40
2018-12-21T21:59:26.163Z,0.50
2018-12-21T22:01:53.672Z,0.47
2018-12-21T22:04:21.208Z,0.50
2018-12-21T22:06:48.778Z,0.40
2018-12-21T22:09:16.323Z,0.40
2018-12-21T22:11:43.851Z,0.40
2018-12-21T22:14:11.392Z,0.40
2018-12-21T22:16:38.992Z,0.50
2018-12-21T22:19:06.487Z,0.93
2018-12-21T22:21:34.027Z,0.50
2018-12-21T22:24:01.539Z,0.77
2018-12-21T22:26:29.568Z,0.40
2018-12-21T22:28:57.103Z,0.47
2018-12-21T22:31:24.604Z,1.20
2018-12-21T22:33:52.231Z,1.37
2018-12-21T22:36:19.736Z,0.60
2018-12-21T22:38:47.228Z,0.70
2018-12-21T22:41:14.756Z,0.40
2018-12-21T22:43:42.330Z,0.57
2018-12-21T22:46:10.025Z,0.70
2018-12-21T22:48:37.547Z,0.50
2018-12-21T22:51:05.063Z,0.50
2018-12-21T22:53:32.638Z,0.90
2018-12-21T22:56:00.215Z,0.60
2018-12-21T22:58:27.943Z,0.70
2018-12-21T23:00:55.456Z,0.87
2018-12-21T23:03:22.957Z,0.93
2018-12-21T23:05:50.484Z,1.00
2018-12-21T23:08:18.007Z,1.00
2018-12-21T23:10:45.735Z,1.40
2018-12-21T23:13:13.236Z,1.23
2018-12-21T23:15:40.771Z,0.77
2018-12-21T23:18:08.323Z,0.77
2018-12-21T23:20:35.820Z,0.60
2018-12-21T23:23:03.625Z,0.60
2018-12-21T23:25:31.124Z,0.50
2018-12-21T23:28:05.053Z,0.60
2018-12-21T23:30:28.207Z,0.70
2018-12-21T23:32:55.706Z,0.50
2018-12-21T23:35:23.368Z,0.40
2018-12-21T23:37:50.880Z,0.60
2018-12-21T23:40:18.375Z,0.70
2018-12-21T23:42:45.946Z,0.43
2018-12-21T23:45:13.470Z,0.50
2018-12-21T23:47:41.080Z,0.40
2018-12-21T23:50:08.687Z,0.60
2018-12-21T23:52:36.187Z,0.67
2018-12-21T23:55:04.431Z,0.60
2018-12-21T23:57:31.956Z,0.80
2018-12-21T23:59:59.515Z,0.50
